Ariccia, Italy

5:29 AM CEST on July 08, 2015 (GMT +0200)
Ariccia - Galloro | | Change Station
CLOSE
Current Station
Personal Weather Station
Location: Ariccia, LAZIO
Elevation: 1601 ft
Nearby Weather Stations
Active Advisory: Extreme high temperature

Elev 1601 ft 41.72 °N, 12.68 °E | Updated 6 minutes ago

Clear
Clear
74.0 °F
Feels Like 77 °F
N
1.0
Wind Variable Wind from NE
Gusts 2.0 mph

Today
High -- | Low -- °F
--% Chance of Precip.
Yesterday
High -- | Low -- °F
Precip. -- in
5:42 AM 8:46 PM
Waning Gibbous, 58% visible
Pressure 29.92 in
Visibility -9999.0 miles
Clouds
Heat Index 77 °F
Dew Point 58 °F
Humidity 58%
Rainfall 0.00 in
Snow Depth Not available.
UV Not available.
Pollen Not available.
Air Quality Not available.
Flu Activity Not available.
METAR LIRA 080320Z 10004KT CAVOK 22/16 Q1013

More Conditions Fewer Conditions

Pressure 29.92 in
Visibility -9999.0 miles
Clouds
Heat Index 77 °F
Dew Point 58 °F
Humidity 58%
Rainfall 0.00 in
Snow Depth Not available.
UV Not available.
Pollen Not available.
Air Quality Not available.
Flu Activity Not available.
METAR LIRA 080320Z 10004KT CAVOK 22/16 Q1013

More Conditions Fewer Conditions

10-Day Weather Forecast

×

Almanac

Astronomy

Jul. 08, 2015 Rise Set
Actual Time
Civil Twilight
Nautical Twilight
Astronomical Twilight
Moon
Length of Visible Light
Length of Day
Tomorrow will be .
, % of the Moon is Illuminated

Today's Extremes

Country Highs Country Lows

Community

WunderPhotos

Upload Photos

1,836,031 photos uploaded!

WunderBlogs® & News

Nearby

Air Quality

  Air Quality AQ Index Pollutant
Not available.

Snow Depth

Station Depth Elevation

Earthquake Activity

City Distance Mag. Time & Date
Minimum magnitude displayed is 2.5.

Coastal Water Temperatures

Place Temperature

Stations

Nearby Weather Stations

Station Location Temp. Windchill Dew Point Humidity Wind Precip. Elev Updated Type